Station History

Weather Underground - logo

Station Historical Data
Daily Summary for November 4, 2017 Units:  English    Metric   Both
« Previous Day
Next Day »
Daily Weekly Monthly Yearly Custom
  High: Low: Average:
Temperature: 71.7 °F 53.0 °F 61.8 °F
Dew Point: 54.7 °F 48.0 °F 51 °F
Humidity: 87 % 48 % 69 %
Wind Speed: 3.5 mph 0.0 mph 0.6 mph
Wind Gust: 3.5 mph - -
Wind:- - West
Pressure: 30.04 in 29.94 in -
Precipitation: 0.00 in    
Historical Graphs
 
 
Tabular Data for November 4, 2017
Time Temperature Dew Point Pressure Wind Wind Speed Wind Gust Humidity Rainfall Rate (Hourly)
00:02 57.8 °F 50.3 °F 30.01 in Calm     76 % 0.00 in
00:07 57.9 °F 49.7 °F 30.01 in West 1.2 mph 1.2 mph 74 % 0.00 in
00:12 57.9 °F 49.7 °F 30.01 in WNW 1.2 mph   74 % 0.00 in
00:17 57.9 °F 49.3 °F 30.01 in Calm     73 % 0.00 in
00:22 57.9 °F 49.3 °F 30.01 in Calm     73 % 0.00 in
00:27 58.2 °F 48.8 °F 30.02 in Calm     71 % 0.00 in
00:32 58.4 °F 48.7 °F 30.02 in NNW 2.3 mph 2.3 mph 70 % 0.00 in
00:37 58.6 °F 48.8 °F 30.02 in WNW 1.2 mph 1.2 mph 70 % 0.00 in
00:42 58.8 °F 48.6 °F 30.02 in NNW 1.2 mph 1.2 mph 69 % 0.00 in
00:47 58.9 °F 48.7 °F 30.02 in NW 1.2 mph 1.2 mph 69 % 0.00 in
00:52 58.9 °F 48.4 °F 30.02 in Calm     68 % 0.00 in
00:57 58.8 °F 48.6 °F 30.02 in Calm     69 % 0.00 in
01:02 58.6 °F 48.5 °F 30.02 in Calm     69 % 0.00 in
01:07 58.6 °F 48.5 °F 30.02 in WNW 1.2 mph   69 % 0.00 in
01:12 58.6 °F 48.5 °F 30.02 in Calm     69 % 0.00 in
01:17 58.5 °F 48.7 °F 30.02 in Calm     70 % 0.00 in
01:22 58.4 °F 48.3 °F 30.02 in Calm     69 % 0.00 in
01:27 58.3 °F 48.6 °F 30.02 in Calm     70 % 0.00 in
01:32 58.0 °F 49.0 °F 30.02 in Calm     72 % 0.00 in
01:37 57.6 °F 49.7 °F 30.02 in Calm     75 % 0.00 in
01:42 56.7 °F 49.2 °F 30.02 in Calm     76 % 0.00 in
01:48 56.2 °F 49.1 °F 30.02 in Calm     77 % 0.00 in
01:53 55.7 °F 48.9 °F 30.02 in Calm     78 % 0.00 in
01:58 55.3 °F 48.9 °F 30.02 in Calm     79 % 0.00 in
02:03 55.0 °F 48.9 °F 30.02 in Calm     80 % 0.00 in
02:08 54.7 °F 49.0 °F 30.02 in Calm     81 % 0.00 in
02:13 54.5 °F 49.1 °F 30.02 in Calm     82 % 0.00 in
02:18 54.4 °F 48.7 °F 30.02 in Calm     81 % 0.00 in
02:23 54.4 °F 49.0 °F 30.02 in Calm     82 % 0.00 in
02:28 54.5 °F 48.8 °F 30.02 in Calm     81 % 0.00 in
02:33 54.6 °F 48.9 °F 30.02 in Calm     81 % 0.00 in
02:38 54.7 °F 49.0 °F 30.01 in Calm     81 % 0.00 in
02:43 54.8 °F 49.1 °F 30.01 in Calm     81 % 0.00 in
02:48 55.0 °F 48.9 °F 30.01 in Calm     80 % 0.00 in
02:53 55.0 °F 49.3 °F 30.01 in Calm     81 % 0.00 in
02:58 55.1 °F 49.4 °F 30.01 in Calm     81 % 0.00 in
03:03 55.0 °F 49.3 °F 30.01 in Calm     81 % 0.00 in
03:08 55.1 °F 49.7 °F 30.01 in Calm     82 % 0.00 in
03:13 55.1 °F 50.0 °F 30.01 in Calm     83 % 0.00 in
03:18 55.0 °F 49.9 °F 30.01 in Calm     83 % 0.00 in
03:23 55.0 °F 48.9 °F 30.01 in Calm     80 % 0.00 in
03:28 55.1 °F 49.4 °F 30.00 in Calm     81 % 0.00 in
03:33 55.0 °F 49.6 °F 30.01 in Calm     82 % 0.00 in
03:38 54.6 °F 49.5 °F 30.01 in Calm     83 % 0.00 in
03:43 54.3 °F 49.2 °F 30.01 in Calm     83 % 0.00 in
03:53 54.0 °F 49.0 °F 30.01 in Calm     83 % 0.00 in
03:58 53.9 °F 49.2 °F 30.01 in Calm     84 % 0.00 in
04:03 53.9 °F 49.2 °F 30.00 in Calm     84 % 0.00 in
04:08 54.0 °F 49.3 °F 30.00 in Calm     84 % 0.00 in
04:14 54.3 °F 49.6 °F 30.01 in Calm     84 % 0.00 in
04:19 54.5 °F 49.8 °F 30.00 in Calm     84 % 0.00 in
04:24 54.5 °F 49.4 °F 30.00 in Calm     83 % 0.00 in
04:29 54.6 °F 49.5 °F 30.01 in Calm     83 % 0.00 in
04:34 54.6 °F 49.5 °F 30.01 in Calm     83 % 0.00 in
04:39 54.5 °F 49.4 °F 30.00 in Calm     83 % 0.00 in
04:44 54.5 °F 49.4 °F 30.00 in Calm     83 % 0.00 in
04:49 54.5 °F 49.8 °F 30.01 in Calm     84 % 0.00 in
04:54 54.4 °F 49.7 °F 30.01 in Calm     84 % 0.00 in
04:59 54.3 °F 49.6 °F 30.01 in Calm     84 % 0.00 in
05:04 54.1 °F 50.0 °F 30.01 in Calm     86 % 0.00 in
05:09 53.9 °F 49.8 °F 30.01 in Calm     86 % 0.00 in
05:14 53.8 °F 49.7 °F 30.01 in Calm     86 % 0.00 in
05:19 53.7 °F 49.6 °F 30.01 in Calm     86 % 0.00 in
05:24 53.7 °F 49.6 °F 30.01 in Calm     86 % 0.00 in
05:29 53.7 °F 49.9 °F 30.01 in Calm     87 % 0.00 in
05:34 53.7 °F 49.9 °F 30.01 in Calm     87 % 0.00 in
05:39 53.8 °F 50.0 °F 30.02 in Calm     87 % 0.00 in
05:44 53.9 °F 49.8 °F 30.02 in Calm     86 % 0.00 in
05:49 54.0 °F 49.9 °F 30.01 in Calm     86 % 0.00 in
05:54 54.1 °F 50.0 °F 30.02 in Calm     86 % 0.00 in
05:59 54.2 °F 49.8 °F 30.01 in Calm     85 % 0.00 in
06:04 54.5 °F 49.4 °F 30.01 in Calm     83 % 0.00 in
06:09 54.7 °F 49.3 °F 30.01 in Calm     82 % 0.00 in
06:14 54.8 °F 49.1 °F 30.01 in Calm     81 % 0.00 in
06:19 54.9 °F 49.2 °F 30.01 in Calm     81 % 0.00 in
06:24 55.1 °F 49.0 °F 30.02 in Calm     80 % 0.00 in
06:29 55.0 °F 48.9 °F 30.01 in Calm     80 % 0.00 in
06:34 55.0 °F 48.9 °F 30.01 in Calm     80 % 0.00 in
06:35 55.1 °F 48.7 °F 30.01 in Calm     79 % 0.00 in
06:40 55.1 °F 48.4 °F 30.01 in Calm     78 % 0.00 in
06:45 55.3 °F 48.6 °F 30.01 in NNW 1.2 mph   78 % 0.00 in
06:50 55.4 °F 48.7 °F 30.01 in Calm     78 % 0.00 in
06:55 55.4 °F 48.7 °F 30.02 in Calm     78 % 0.00 in
07:00 55.3 °F 48.9 °F 30.02 in Calm     79 % 0.00 in
07:05 55.0 °F 48.9 °F 30.02 in Calm     80 % 0.00 in
07:10 54.8 °F 49.1 °F 30.02 in Calm     81 % 0.00 in
07:15 54.6 °F 49.2 °F 30.02 in Calm     82 % 0.00 in
07:20 54.4 °F 49.0 °F 30.02 in Calm     82 % 0.00 in
07:25 54.2 °F 48.8 °F 30.02 in Calm     82 % 0.00 in
07:30 54.0 °F 48.3 °F 30.02 in Calm     81 % 0.00 in
07:35 53.9 °F 48.2 °F 30.02 in Calm     81 % 0.00 in
07:40 53.7 °F 48.0 °F 30.03 in Calm     81 % 0.00 in
07:45 53.5 °F 48.1 °F 30.03 in Calm     82 % 0.00 in
07:50 53.2 °F 48.2 °F 30.03 in Calm     83 % 0.00 in
07:55 53.0 °F 48.3 °F 30.03 in Calm     84 % 0.00 in
08:00 53.0 °F 48.0 °F 30.03 in Calm     83 % 0.00 in
08:05 53.3 °F 48.6 °F 30.03 in Calm     84 % 0.00 in
08:10 53.6 °F 48.9 °F 30.04 in Calm     84 % 0.00 in
08:16 54.1 °F 48.7 °F 30.03 in Calm     82 % 0.00 in
08:21 54.9 °F 48.8 °F 30.03 in Calm     80 % 0.00 in
08:26 55.9 °F 49.1 °F 30.03 in Calm     78 % 0.00 in
08:31 56.9 °F 49.4 °F 30.03 in Calm     76 % 0.00 in
08:36 58.3 °F 49.7 °F 30.03 in Calm     73 % 0.00 in
08:41 59.2 °F 49.4 °F 30.04 in Calm     70 % 0.00 in
08:46 59.5 °F 50.1 °F 30.04 in Calm     71 % 0.00 in
08:51 59.6 °F 50.2 °F 30.04 in Calm     71 % 0.00 in
08:56 59.9 °F 50.5 °F 30.04 in Calm     71 % 0.00 in
09:01 60.1 °F 50.7 °F 30.04 in Calm     71 % 0.00 in
09:06 60.5 °F 50.7 °F 30.04 in Calm     70 % 0.00 in
09:11 60.5 °F 49.9 °F 30.04 in Calm   0.1 mph 68 % 0.00 in
09:16 60.7 °F 50.9 °F 30.04 in Calm     70 % 0.00 in
09:21 61.1 °F 50.5 °F 30.04 in NNW 1.2 mph   68 % 0.00 in
09:26 61.7 °F 50.6 °F 30.04 in Calm     67 % 0.00 in
09:31 62.8 °F 50.4 °F 30.04 in Calm     64 % 0.00 in
09:36 63.8 °F 51.0 °F 30.03 in ESE 1.2 mph   63 % 0.00 in
09:41 64.4 °F 50.7 °F 30.03 in Calm     61 % 0.00 in
09:46 64.2 °F 50.9 °F 30.04 in Calm     62 % 0.00 in
09:51 64.5 °F 50.7 °F 30.03 in Calm     61 % 0.00 in
09:56 64.7 °F 50.9 °F 30.03 in Calm     61 % 0.00 in
10:01 65.4 °F 50.2 °F 30.03 in NE 1.2 mph   58 % 0.00 in
10:06 65.7 °F 50.5 °F 30.04 in Calm     58 % 0.00 in
10:11 65.5 °F 49.9 °F 30.04 in East 1.2 mph   57 % 0.00 in
10:16 65.5 °F 50.8 °F 30.03 in Calm     59 % 0.00 in
10:21 66.5 °F 51.3 °F 30.03 in SSW 1.2 mph 1.2 mph 58 % 0.00 in
10:26 66.8 °F 50.6 °F 30.04 in SSE 1.2 mph 1.2 mph 56 % 0.00 in
10:31 66.4 °F 49.7 °F 30.03 in ESE 1.2 mph 1.2 mph 55 % 0.00 in
10:36 66.5 °F 50.8 °F 30.03 in East 3.5 mph 3.5 mph 57 % 0.00 in
10:41 67.1 °F 51.4 °F 30.03 in SSW 1.2 mph 1.2 mph 57 % 0.00 in
10:46 67.3 °F 50.1 °F 30.04 in East 1.2 mph 1.2 mph 54 % 0.00 in
10:51 67.3 °F 52.0 °F 30.03 in SE 1.2 mph 1.2 mph 58 % 0.00 in
10:56 68.3 °F 51.5 °F 30.03 in SE 3.5 mph 3.5 mph 55 % 0.00 in
11:32 69.1 °F 51.8 °F 30.03 in NNW 1.2 mph 1.2 mph 54 % 0.00 in
11:37 69.5 °F 52.1 °F 30.03 in ENE 1.2 mph 1.2 mph 54 % 0.00 in
11:42 69.4 °F 51.0 °F 30.03 in Calm     52 % 0.00 in
11:47 69.3 °F 50.9 °F 30.03 in NW 1.2 mph   52 % 0.00 in
11:52 69.4 °F 50.5 °F 30.02 in East 1.2 mph 1.2 mph 51 % 0.00 in
11:57 69.9 °F 51.5 °F 30.02 in Calm     52 % 0.00 in
12:02 70.3 °F 51.3 °F 30.02 in WSW 1.2 mph   51 % 0.00 in
12:07 70.4 °F 50.9 °F 30.02 in SE 2.0 mph 2.0 mph 50 % 0.00 in
12:12 70.6 °F 51.1 °F 30.02 in SE 1.2 mph 1.2 mph 50 % 0.00 in
12:17 70.7 °F 51.1 °F 30.02 in NW 2.0 mph 2.0 mph 50 % 0.00 in
12:22 70.5 °F 50.4 °F 30.02 in NW 1.2 mph 1.2 mph 49 % 0.00 in
12:27 70.3 °F 51.3 °F 30.01 in WNW 3.5 mph 3.5 mph 51 % 0.00 in
12:32 70.1 °F 50.6 °F 30.01 in West 1.2 mph 1.2 mph 50 % 0.00 in
12:37 70.1 °F 51.7 °F 30.01 in NW 1.2 mph 1.2 mph 52 % 0.00 in
12:42 70.2 °F 51.7 °F 30.00 in WNW 1.2 mph 1.2 mph 52 % 0.00 in
12:47 70.3 °F 51.3 °F 30.00 in NW 2.3 mph 2.3 mph 51 % 0.00 in
12:52 70.0 °F 51.0 °F 30.00 in WNW 2.3 mph 2.3 mph 51 % 0.00 in
12:57 69.9 °F 51.5 °F 29.99 in ESE 1.2 mph   52 % 0.00 in
13:02 70.6 °F 52.6 °F 29.99 in Calm     53 % 0.00 in
13:07 70.7 °F 51.1 °F 29.99 in NW 1.2 mph   50 % 0.00 in
13:12 70.9 °F 51.3 °F 29.98 in West 2.3 mph 2.3 mph 50 % 0.00 in
13:17 71.4 °F 52.3 °F 29.98 in NW 2.3 mph 2.3 mph 51 % 0.00 in
13:22 71.6 °F 52.0 °F 29.98 in NW 2.3 mph 2.3 mph 50 % 0.00 in
13:27 71.5 °F 52.4 °F 29.98 in WNW 3.5 mph 3.5 mph 51 % 0.00 in
13:32 71.3 °F 51.7 °F 29.98 in NNW 1.2 mph 1.2 mph 50 % 0.00 in
13:37 71.7 °F 51.5 °F 29.98 in NW 3.5 mph 3.5 mph 49 % 0.00 in
13:43 71.3 °F 51.7 °F 29.97 in NW 2.3 mph 2.3 mph 50 % 0.00 in
13:48 71.1 °F 50.4 °F 29.97 in NW 2.3 mph 2.3 mph 48 % 0.00 in
13:53 71.0 °F 50.9 °F 29.96 in WNW 2.0 mph 2.0 mph 49 % 0.00 in
13:58 71.2 °F 50.5 °F 29.96 in NW 3.5 mph 3.5 mph 48 % 0.00 in
14:03 71.0 °F 50.9 °F 29.96 in WNW 1.2 mph   49 % 0.00 in
14:08 71.0 °F 50.9 °F 29.96 in WNW 3.5 mph 3.5 mph 49 % 0.00 in
14:13 71.3 °F 51.1 °F 29.96 in SE 2.3 mph 2.3 mph 49 % 0.00 in
14:16 71.4 °F 50.7 °F 29.96 in WNW 3.5 mph 3.5 mph 48 % 0.00 in
14:21 71.4 °F 51.2 °F 29.95 in NW 2.3 mph 2.3 mph 49 % 0.00 in
14:26 71.1 °F 51.0 °F 29.95 in WSW 2.3 mph 2.3 mph 49 % 0.00 in
14:31 70.9 °F 51.3 °F 29.95 in NW 2.3 mph 2.3 mph 50 % 0.00 in
14:36 70.5 °F 51.0 °F 29.95 in NNW 2.0 mph 2.0 mph 50 % 0.00 in
14:41 70.3 °F 51.3 °F 29.95 in NNW 2.3 mph 2.3 mph 51 % 0.00 in
14:46 70.1 °F 51.1 °F 29.94 in NW 1.2 mph 1.2 mph 51 % 0.00 in
14:51 70.1 °F 51.1 °F 29.95 in West 2.3 mph 2.3 mph 51 % 0.00 in
14:56 70.1 °F 51.1 °F 29.95 in NW 2.3 mph 2.3 mph 51 % 0.00 in
15:01 70.1 °F 51.1 °F 29.95 in WNW 1.2 mph   51 % 0.00 in
15:06 70.3 °F 51.3 °F 29.95 in NW 3.5 mph 3.5 mph 51 % 0.00 in
15:11 70.3 °F 51.3 °F 29.94 in NNE 2.0 mph 2.0 mph 51 % 0.00 in
15:16 70.5 °F 51.5 °F 29.94 in North 1.2 mph 1.2 mph 51 % 0.00 in
15:21 70.5 °F 52.0 °F 29.94 in WNW 1.2 mph 1.2 mph 52 % 0.00 in
15:26 70.3 °F 51.3 °F 29.94 in NW 1.2 mph 1.2 mph 51 % 0.00 in
15:31 70.1 °F 51.7 °F 29.94 in WNW 2.3 mph   52 % 0.00 in
15:36 70.2 °F 51.7 °F 29.94 in SW 1.2 mph   52 % 0.00 in
15:42 70.2 °F 50.7 °F 29.94 in WNW 2.3 mph 2.3 mph 50 % 0.00 in
15:47 70.0 °F 50.5 °F 29.94 in Calm     50 % 0.00 in
15:52 70.1 °F 51.1 °F 29.94 in Calm     51 % 0.00 in
15:57 70.0 °F 51.0 °F 29.94 in West 2.3 mph 2.3 mph 51 % 0.00 in
16:02 69.9 °F 50.9 °F 29.94 in Calm     51 % 0.00 in
16:07 69.9 °F 50.4 °F 29.94 in Calm     50 % 0.00 in
16:12 69.9 °F 49.9 °F 29.94 in Calm     49 % 0.00 in
16:17 69.8 °F 50.3 °F 29.94 in NW 1.2 mph 1.2 mph 50 % 0.00 in
16:22 69.6 °F 50.7 °F 29.95 in NNW 1.2 mph   51 % 0.00 in
16:27 69.5 °F 50.6 °F 29.95 in Calm     51 % 0.00 in
16:32 69.4 °F 49.9 °F 29.95 in WSW 2.3 mph 2.3 mph 50 % 0.00 in
16:37 69.5 °F 50.6 °F 29.94 in Calm     51 % 0.00 in
16:42 69.4 °F 51.5 °F 29.94 in Calm     53 % 0.00 in
16:47 69.3 °F 50.9 °F 29.94 in Calm     52 % 0.00 in
16:52 69.2 °F 51.8 °F 29.95 in Calm     54 % 0.00 in
16:57 69.0 °F 51.7 °F 29.95 in WNW 2.3 mph 2.3 mph 54 % 0.00 in
17:02 68.9 °F 52.6 °F 29.95 in Calm     56 % 0.00 in
17:07 68.9 °F 53.0 °F 29.94 in WNW 1.2 mph   57 % 0.00 in
17:12 68.8 °F 52.0 °F 29.94 in Calm     55 % 0.00 in
17:17 68.7 °F 51.9 °F 29.94 in WNW 1.0 mph 1.0 mph 55 % 0.00 in
17:22 68.5 °F 51.7 °F 29.95 in NNW 2.3 mph 2.3 mph 55 % 0.00 in
17:27 68.2 °F 51.9 °F 29.95 in Calm     56 % 0.00 in
17:32 68.0 °F 52.2 °F 29.95 in WNW 1.2 mph 1.2 mph 57 % 0.00 in
17:37 67.7 °F 51.4 °F 29.95 in NW 2.3 mph 2.3 mph 56 % 0.00 in
17:42 67.5 °F 51.7 °F 29.95 in WNW 2.0 mph 2.0 mph 57 % 0.00 in
17:47 67.4 °F 51.6 °F 29.95 in NW 1.2 mph 1.2 mph 57 % 0.00 in
17:52 67.2 °F 51.9 °F 29.95 in NW 2.3 mph 2.3 mph 58 % 0.00 in
17:57 66.8 °F 53.4 °F 29.96 in WNW 1.0 mph 1.0 mph 62 % 0.00 in
18:02 66.3 °F 53.8 °F 29.96 in Calm     64 % 0.00 in
18:07 65.6 °F 53.9 °F 29.96 in Calm     66 % 0.00 in
18:12 65.0 °F 54.6 °F 29.96 in WNW 1.2 mph   69 % 0.00 in
18:17 64.6 °F 54.6 °F 29.96 in Calm     70 % 0.00 in
18:22 64.3 °F 54.3 °F 29.96 in Calm     70 % 0.00 in
18:27 64.3 °F 54.7 °F 29.95 in Calm     71 % 0.00 in
18:32 64.2 °F 54.6 °F 29.96 in Calm   0.1 mph 71 % 0.00 in
18:37 64.2 °F 54.6 °F 29.96 in Calm     71 % 0.00 in
18:42 64.1 °F 54.5 °F 29.96 in Calm     71 % 0.00 in
18:47 64.0 °F 54.4 °F 29.96 in Calm     71 % 0.00 in
18:48 64.0 °F 54.4 °F 29.96 in Calm     71 % 0.00 in
18:53 64.1 °F 54.5 °F 29.96 in WNW 1.0 mph   71 % 0.00 in
18:58 64.2 °F 53.8 °F 29.96 in NW 1.2 mph 1.2 mph 69 % 0.00 in
19:08 64.2 °F 53.8 °F 29.96 in NNW 1.2 mph 1.2 mph 69 % 0.00 in
19:13 64.0 °F 53.6 °F 29.96 in NNW 1.2 mph 1.2 mph 69 % 0.00 in
19:18 63.9 °F 53.5 °F 29.96 in Calm     69 % 0.00 in
19:23 63.7 °F 53.3 °F 29.96 in Calm     69 % 0.00 in
19:28 63.7 °F 53.7 °F 29.96 in Calm     70 % 0.00 in
19:33 63.5 °F 53.5 °F 29.97 in Calm     70 % 0.00 in
19:38 63.5 °F 53.5 °F 29.96 in Calm     70 % 0.00 in
19:43 63.4 °F 53.4 °F 29.96 in Calm     70 % 0.00 in
19:48 63.2 °F 53.6 °F 29.96 in Calm     71 % 0.00 in
19:53 63.0 °F 53.4 °F 29.96 in Calm     71 % 0.00 in
19:58 62.8 °F 53.6 °F 29.96 in Calm     72 % 0.00 in
20:03 62.6 °F 53.4 °F 29.96 in Calm     72 % 0.00 in
20:09 62.4 °F 53.6 °F 29.96 in Calm     73 % 0.00 in
20:14 62.2 °F 53.4 °F 29.96 in Calm     73 % 0.00 in
20:19 62.0 °F 53.2 °F 29.96 in Calm     73 % 0.00 in
20:21 62.0 °F 53.6 °F 29.96 in Calm     74 % 0.00 in
20:23 61.9 °F 53.1 °F 29.96 in Calm     73 % 0.00 in
20:26 61.9 °F 53.5 °F 29.96 in NW 1.2 mph 1.2 mph 74 % 0.00 in
20:29 61.8 °F 53.4 °F 29.96 in Calm     74 % 0.00 in
20:32 61.8 °F 53.4 °F 29.96 in NW 1.2 mph   74 % 0.00 in
20:37 61.7 °F 53.0 °F 29.97 in Calm     73 % 0.00 in
20:42 61.7 °F 53.0 °F 29.97 in Calm     73 % 0.00 in
20:47 61.7 °F 53.0 °F 29.97 in Calm     73 % 0.00 in
20:52 61.6 °F 52.9 °F 29.97 in Calm     73 % 0.00 in
20:57 61.6 °F 53.2 °F 29.97 in Calm     74 % 0.00 in
21:02 61.6 °F 53.2 °F 29.97 in Calm     74 % 0.00 in
21:07 61.5 °F 52.8 °F 29.97 in Calm     73 % 0.00 in
21:12 61.4 °F 53.4 °F 29.97 in Calm     75 % 0.00 in
21:17 61.1 °F 53.5 °F 29.98 in Calm     76 % 0.00 in
21:22 60.7 °F 53.8 °F 29.98 in Calm     78 % 0.00 in
21:27 60.3 °F 53.8 °F 29.98 in Calm     79 % 0.00 in
21:32 60.1 °F 53.6 °F 29.98 in Calm     79 % 0.00 in
21:37 59.9 °F 53.7 °F 29.98 in Calm     80 % 0.00 in
21:42 60.0 °F 53.8 °F 29.98 in Calm     80 % 0.00 in
21:47 60.1 °F 54.2 °F 29.99 in Calm     81 % 0.00 in
21:52 59.9 °F 54.1 °F 29.99 in Calm     81 % 0.00 in
21:57 59.7 °F 54.2 °F 29.99 in Calm     82 % 0.00 in
22:02 59.5 °F 54.0 °F 29.99 in Calm     82 % 0.00 in
22:07 59.5 °F 53.7 °F 29.99 in Calm     81 % 0.00 in
22:12 59.5 °F 53.7 °F 30.00 in Calm     81 % 0.00 in
22:17 59.3 °F 53.8 °F 30.00 in Calm     82 % 0.00 in
22:22 59.2 °F 53.7 °F 29.99 in Calm     82 % 0.00 in
22:27 59.1 °F 53.9 °F 29.99 in Calm     83 % 0.00 in
22:32 59.0 °F 53.8 °F 29.99 in Calm     83 % 0.00 in
22:37 58.9 °F 53.7 °F 29.99 in Calm     83 % 0.00 in
22:42 58.9 °F 53.1 °F 29.99 in Calm     81 % 0.00 in
22:47 58.9 °F 53.4 °F 29.99 in Calm     82 % 0.00 in
22:57 58.4 °F 53.3 °F 29.99 in Calm     83 % 0.00 in
23:02 58.0 °F 52.9 °F 29.99 in Calm     83 % 0.00 in
23:07 57.8 °F 53.0 °F 29.99 in Calm     84 % 0.00 in
23:12 57.9 °F 52.8 °F 29.99 in Calm     83 % 0.00 in
23:17 58.0 °F 52.5 °F 29.99 in Calm     82 % 0.00 in
23:22 58.0 °F 52.5 °F 29.99 in Calm     82 % 0.00 in
23:27 58.1 °F 52.6 °F 29.99 in Calm     82 % 0.00 in
23:33 58.0 °F 52.5 °F 30.00 in Calm     82 % 0.00 in
23:38 57.9 °F 52.4 °F 30.00 in Calm     82 % 0.00 in
23:43 57.8 °F 52.3 °F 30.00 in Calm     82 % 0.00 in
23:48 57.6 °F 52.1 °F 30.00 in Calm     82 % 0.00 in
23:53 57.1 °F 52.0 °F 30.00 in Calm     83 % 0.00 in
23:58 56.8 °F 52.0 °F 30.00 in Calm     84 % 0.00 in
Park Place, Exeter, Tulare County, California, USA
Compliments of Weather Underground - 2.75 mb